createdAt,value
2023-03-18T00:00:16.722Z,99.90
2023-03-18T00:02:43.738Z,99.90
2023-03-18T00:05:11.704Z,99.90
2023-03-18T00:07:41.549Z,99.90
2023-03-18T00:10:11.939Z,99.90
2023-03-18T00:12:42.162Z,99.90
2023-03-18T00:15:11.976Z,99.90
2023-03-18T00:17:41.202Z,99.90
2023-03-18T00:20:09.625Z,99.90
2023-03-18T00:22:43.256Z,99.90
2023-03-18T00:25:14.336Z,99.90
2023-03-18T00:27:41.188Z,99.90
2023-03-18T00:30:08.843Z,99.90
2023-03-18T00:32:36.093Z,99.90
2023-03-18T00:35:05.779Z,99.90
2023-03-18T00:37:33.626Z,99.90
2023-03-18T00:40:06.372Z,99.90
2023-03-18T00:42:39.921Z,99.90
2023-03-18T00:45:10.259Z,99.90
2023-03-18T00:47:38.581Z,99.90
2023-03-18T00:50:07.304Z,99.90
2023-03-18T00:52:34.716Z,99.90
2023-03-18T00:55:04.856Z,99.90
2023-03-18T00:57:31.793Z,99.90
2023-03-18T00:59:59.334Z,99.90
2023-03-18T01:02:28.432Z,99.90
2023-03-18T01:04:57.057Z,99.90
2023-03-18T01:07:24.279Z,99.90
2023-03-18T01:09:51.113Z,99.90
2023-03-18T01:12:18.177Z,99.90
2023-03-18T01:14:44.807Z,99.90
2023-03-18T01:17:11.597Z,99.90
2023-03-18T01:19:38.714Z,99.90
2023-03-18T01:22:05.617Z,99.90
2023-03-18T01:24:32.455Z,99.80
2023-03-18T01:27:00.099Z,99.90
2023-03-18T01:29:27.287Z,99.90
2023-03-18T01:31:55.028Z,99.90
2023-03-18T01:34:24.110Z,99.90
2023-03-18T01:36:50.952Z,99.90
2023-03-18T01:39:18.044Z,99.90
2023-03-18T01:41:45.607Z,99.90
2023-03-18T01:44:19.190Z,99.90
2023-03-18T01:46:50.084Z,99.90
2023-03-18T01:49:27.168Z,99.90
2023-03-18T01:52:02.887Z,99.90
2023-03-18T01:54:34.470Z,99.90
2023-03-18T01:57:03.841Z,99.90
2023-03-18T01:59:38.398Z,99.90
2023-03-18T02:02:10.779Z,99.90
2023-03-18T02:04:44.130Z,99.90
2023-03-18T02:07:26.237Z,99.90
2023-03-18T02:09:54.312Z,99.90
2023-03-18T02:12:29.442Z,99.90
2023-03-18T02:14:56.721Z,99.90
2023-03-18T02:17:30.172Z,99.90
2023-03-18T02:20:18.724Z,99.90
2023-03-18T02:23:08.727Z,99.90
2023-03-18T02:25:57.766Z,99.90
2023-03-18T02:28:29.619Z,99.90
2023-03-18T02:30:59.865Z,99.90
2023-03-18T02:33:34.733Z,99.90
2023-03-18T02:36:07.121Z,99.90
2023-03-18T02:38:33.744Z,99.90
2023-03-18T02:41:02.867Z,99.90
2023-03-18T02:43:31.934Z,99.90
2023-03-18T02:46:13.683Z,99.90
2023-03-18T02:48:44.211Z,99.90
2023-03-18T02:51:12.597Z,99.90
2023-03-18T02:53:39.357Z,99.90
2023-03-18T02:56:07.093Z,99.90
2023-03-18T02:58:34.409Z,99.90
2023-03-18T03:01:01.344Z,99.90
2023-03-18T03:03:29.106Z,99.90
2023-03-18T03:05:56.348Z,99.90
2023-03-18T03:08:23.692Z,99.90
2023-03-18T03:10:52.288Z,99.90
2023-03-18T03:13:20.691Z,99.90
2023-03-18T03:15:47.444Z,99.90
2023-03-18T03:18:14.479Z,99.90
2023-03-18T03:20:41.845Z,99.90
2023-03-18T03:23:12.461Z,99.90
2023-03-18T03:25:42.175Z,99.90
2023-03-18T03:28:11.911Z,99.90
2023-03-18T03:30:39.827Z,99.90
2023-03-18T03:33:06.753Z,99.90
2023-03-18T03:35:33.515Z,99.90
2023-03-18T03:38:00.295Z,99.90
2023-03-18T03:40:27.652Z,99.90
2023-03-18T03:42:54.557Z,99.90
2023-03-18T03:45:21.428Z,99.90
2023-03-18T03:47:48.455Z,99.90
2023-03-18T03:50:16.552Z,99.90
2023-03-18T03:52:49.162Z,99.90
2023-03-18T03:55:19.360Z,99.90
2023-03-18T03:57:47.322Z,99.90
2023-03-18T04:00:17.173Z,99.90
2023-03-18T04:02:45.317Z,99.90
2023-03-18T04:05:17.315Z,99.90
2023-03-18T04:07:45.970Z,99.90
2023-03-18T04:10:14.854Z,99.90
2023-03-18T04:12:47.362Z,99.90
2023-03-18T04:15:16.447Z,99.90
2023-03-18T04:17:45.752Z,99.90
2023-03-18T04:20:12.973Z,99.90
2023-03-18T04:22:39.666Z,99.90
2023-03-18T04:25:06.695Z,99.90
2023-03-18T04:27:37.359Z,99.90
2023-03-18T04:30:06.377Z,99.90
2023-03-18T04:32:33.123Z,99.90
2023-03-18T04:35:00.066Z,99.90
2023-03-18T04:37:26.991Z,99.90
2023-03-18T04:39:53.651Z,99.90
2023-03-18T04:42:20.321Z,99.90
2023-03-18T04:44:47.076Z,99.90
2023-03-18T04:47:13.863Z,99.90
2023-03-18T04:49:43.866Z,99.90
2023-03-18T04:52:10.506Z,99.90
2023-03-18T04:54:39.022Z,99.90
2023-03-18T04:57:06.720Z,99.90
2023-03-18T04:59:33.551Z,99.90
2023-03-18T05:02:00.238Z,99.90
2023-03-18T05:04:27.363Z,99.90
2023-03-18T05:06:54.108Z,99.90
2023-03-18T05:09:20.769Z,99.90
2023-03-18T05:11:49.684Z,99.90
2023-03-18T05:14:16.349Z,99.90
2023-03-18T05:16:43.264Z,99.90
2023-03-18T05:19:12.986Z,99.90
2023-03-18T05:21:44.314Z,99.90
2023-03-18T05:24:10.979Z,99.90
2023-03-18T05:26:38.816Z,99.90
2023-03-18T05:29:05.578Z,99.90
2023-03-18T05:31:32.297Z,99.90
2023-03-18T05:34:00.315Z,99.90
2023-03-18T05:36:27.007Z,99.90
2023-03-18T05:38:53.678Z,99.90
2023-03-18T05:41:22.506Z,99.90
2023-03-18T05:43:49.158Z,99.90
2023-03-18T05:46:18.331Z,99.90
2023-03-18T05:48:45.109Z,99.90
2023-03-18T05:51:12.620Z,99.90
2023-03-18T05:53:39.533Z,99.90
2023-03-18T05:56:07.781Z,99.90
2023-03-18T05:58:34.718Z,99.90
2023-03-18T06:01:01.387Z,99.90
2023-03-18T06:03:28.196Z,99.90
2023-03-18T06:05:55.330Z,99.90
2023-03-18T06:08:22.392Z,99.90
2023-03-18T06:10:49.086Z,99.90
2023-03-18T06:13:16.404Z,99.90
2023-03-18T06:15:48.734Z,99.90
2023-03-18T06:18:15.617Z,99.90
2023-03-18T06:20:42.421Z,99.90
2023-03-18T06:23:10.056Z,99.90
2023-03-18T06:25:36.864Z,99.90
2023-03-18T06:28:03.809Z,99.90
2023-03-18T06:30:30.532Z,99.90
2023-03-18T06:32:57.666Z,99.90
2023-03-18T06:35:26.635Z,99.90
2023-03-18T06:37:53.836Z,99.90
2023-03-18T06:40:20.812Z,99.90
2023-03-18T06:42:50.061Z,99.90
2023-03-18T06:45:17.185Z,99.90
2023-03-18T06:47:44.601Z,99.90
2023-03-18T06:50:11.812Z,99.90
2023-03-18T06:52:38.543Z,99.90
2023-03-18T06:55:06.596Z,99.90
2023-03-18T06:57:34.651Z,99.90
2023-03-18T07:00:02.021Z,99.90
2023-03-18T07:02:28.739Z,99.90
2023-03-18T07:04:55.466Z,99.90
2023-03-18T07:07:22.986Z,99.90
2023-03-18T07:09:50.697Z,99.90
2023-03-18T07:12:17.560Z,99.90
2023-03-18T07:14:44.199Z,99.90
2023-03-18T07:17:14.404Z,99.90
2023-03-18T07:19:41.845Z,99.90
2023-03-18T07:22:11.771Z,99.90
2023-03-18T07:24:38.534Z,99.90
2023-03-18T07:27:06.826Z,99.90
2023-03-18T07:29:33.656Z,99.90
2023-03-18T07:32:01.710Z,99.90
2023-03-18T07:34:28.628Z,99.90
2023-03-18T07:36:55.712Z,99.90
2023-03-18T07:39:24.627Z,99.90
2023-03-18T07:41:51.673Z,99.90
2023-03-18T07:44:18.493Z,99.90
2023-03-18T07:46:45.515Z,99.90
2023-03-18T07:49:12.235Z,99.10
2023-03-18T07:51:38.844Z,99.50
2023-03-18T07:54:05.586Z,98.70
2023-03-18T07:56:32.367Z,97.50
2023-03-18T07:59:01.273Z,97.30
2023-03-18T08:01:28.994Z,97.20
2023-03-18T08:03:58.097Z,97.70
2023-03-18T08:06:25.226Z,98.20
2023-03-18T08:08:54.682Z,98.00
2023-03-18T08:11:21.336Z,97.40
2023-03-18T08:13:48.010Z,97.40
2023-03-18T08:16:15.585Z,97.60
2023-03-18T08:18:42.344Z,97.80
2023-03-18T08:21:09.512Z,96.90
2023-03-18T08:23:39.255Z,95.80
2023-03-18T08:26:08.087Z,96.20
2023-03-18T08:28:34.802Z,95.90
2023-03-18T08:31:01.470Z,95.10
2023-03-18T08:33:33.469Z,94.90
2023-03-18T08:36:02.584Z,94.40
2023-03-18T08:38:29.354Z,94.20
2023-03-18T08:40:58.922Z,93.90
2023-03-18T08:43:25.849Z,93.70
2023-03-18T08:45:53.906Z,93.40
2023-03-18T08:48:21.793Z,93.00
2023-03-18T08:50:49.022Z,93.30
2023-03-18T08:53:18.497Z,92.60
2023-03-18T08:55:46.444Z,92.60
2023-03-18T08:58:15.475Z,92.70
2023-03-18T09:00:42.920Z,91.90
2023-03-18T09:03:10.047Z,91.30
2023-03-18T09:05:37.594Z,91.20
2023-03-18T09:08:07.712Z,90.70
2023-03-18T09:10:35.638Z,91.30
2023-03-18T09:13:02.393Z,90.60
2023-03-18T09:15:29.126Z,89.90
2023-03-18T09:18:10.801Z,89.80
2023-03-18T09:20:39.122Z,88.30
2023-03-18T09:23:06.685Z,87.70
2023-03-18T09:25:34.405Z,86.10
2023-03-18T09:28:01.411Z,87.50
2023-03-18T09:30:30.458Z,87.30
2023-03-18T09:32:57.363Z,86.70
2023-03-18T09:35:24.563Z,86.60
2023-03-18T09:37:51.959Z,86.10
2023-03-18T09:40:28.990Z,85.00
2023-03-18T09:42:59.891Z,86.00
2023-03-18T09:45:35.174Z,85.90
2023-03-18T09:48:07.373Z,85.60
2023-03-18T09:50:48.628Z,86.80
2023-03-18T09:53:24.014Z,86.60
2023-03-18T09:55:57.616Z,84.60
2023-03-18T09:58:54.466Z,85.60
2023-03-18T10:01:24.216Z,84.40
2023-03-18T10:04:09.629Z,83.60
2023-03-18T10:06:37.551Z,84.20
2023-03-18T10:09:07.909Z,82.50
2023-03-18T10:11:39.740Z,85.00
2023-03-18T10:14:07.037Z,85.60
2023-03-18T10:16:55.549Z,80.30
2023-03-18T10:19:24.902Z,78.60
2023-03-18T10:22:04.897Z,79.60
2023-03-18T10:25:17.071Z,77.00
2023-03-18T10:28:24.946Z,77.40
2023-03-18T10:31:18.289Z,74.90
2023-03-18T10:34:09.601Z,72.40
2023-03-18T10:36:48.048Z,74.10
2023-03-18T10:39:20.946Z,73.30
2023-03-18T10:41:53.462Z,80.40
2023-03-18T10:44:31.058Z,73.00
2023-03-18T10:47:28.221Z,73.20
2023-03-18T10:50:08.976Z,75.70
2023-03-18T10:52:58.347Z,75.80
2023-03-18T10:55:31.134Z,76.00
2023-03-18T10:57:58.071Z,74.30
2023-03-18T11:00:31.021Z,74.20
2023-03-18T11:02:58.403Z,72.50
2023-03-18T11:05:36.078Z,73.40
2023-03-18T11:08:10.429Z,72.60
2023-03-18T11:10:46.982Z,71.50
2023-03-18T11:13:17.633Z,67.90
2023-03-18T11:15:55.083Z,68.40
2023-03-18T11:18:25.416Z,67.30
2023-03-18T11:21:03.659Z,67.50
2023-03-18T11:23:56.588Z,67.40
2023-03-18T11:26:29.229Z,66.10
2023-03-18T11:29:05.202Z,62.60
2023-03-18T11:31:32.385Z,62.30
2023-03-18T11:34:00.565Z,66.60
2023-03-18T11:36:28.124Z,63.40
2023-03-18T11:39:02.957Z,61.80
2023-03-18T11:41:32.704Z,62.60
2023-03-18T11:44:05.344Z,61.30
2023-03-18T11:46:55.692Z,62.90
2023-03-18T11:49:29.561Z,62.50
2023-03-18T11:52:06.755Z,61.20
2023-03-18T11:54:43.194Z,61.20
2023-03-18T11:57:42.103Z,62.00
2023-03-18T12:00:26.614Z,63.40
2023-03-18T12:03:20.671Z,63.60
2023-03-18T12:06:10.597Z,63.40
2023-03-18T12:08:57.043Z,65.60
2023-03-18T12:11:46.876Z,62.40
2023-03-18T12:14:33.375Z,63.60
2023-03-18T12:17:03.897Z,62.50
2023-03-18T12:19:41.922Z,63.60
2023-03-18T12:22:30.722Z,65.10
2023-03-18T12:25:22.530Z,66.30
2023-03-18T12:28:20.582Z,66.50
2023-03-18T12:31:04.486Z,68.40
2023-03-18T12:33:50.947Z,67.90
2023-03-18T12:36:31.140Z,68.70
2023-03-18T12:39:18.115Z,67.50
2023-03-18T12:42:07.358Z,66.80
2023-03-18T12:44:55.204Z,66.40
2023-03-18T12:48:06.386Z,64.50
2023-03-18T12:50:51.808Z,64.00
2023-03-18T12:53:35.720Z,61.80
2023-03-18T12:56:11.094Z,62.50
2023-03-18T12:58:43.982Z,63.70
2023-03-18T13:01:19.182Z,60.80
2023-03-18T13:03:58.455Z,60.80
2023-03-18T13:06:33.381Z,61.90
2023-03-18T13:09:13.487Z,60.70
2023-03-18T13:12:05.930Z,60.20
2023-03-18T13:14:53.823Z,60.20
2023-03-18T13:17:31.641Z,59.40
2023-03-18T13:20:00.773Z,59.90
2023-03-18T13:22:43.079Z,58.70
2023-03-18T13:25:30.606Z,58.30
2023-03-18T13:28:18.529Z,57.50
2023-03-18T13:31:09.376Z,58.10
2023-03-18T13:34:12.911Z,56.90
2023-03-18T13:37:10.042Z,57.10
2023-03-18T13:40:17.890Z,58.90
2023-03-18T13:42:46.619Z,60.00
2023-03-18T13:45:33.753Z,58.90
2023-03-18T13:48:06.513Z,58.50
2023-03-18T13:50:42.261Z,59.90
2023-03-18T13:53:28.954Z,61.50
2023-03-18T13:55:58.835Z,59.20
2023-03-18T13:58:29.719Z,58.00
2023-03-18T14:00:56.928Z,59.10
2023-03-18T14:03:50.711Z,58.40
2023-03-18T14:06:38.672Z,58.10
2023-03-18T14:09:32.363Z,58.80
2023-03-18T14:12:34.703Z,59.90
2023-03-18T14:15:33.765Z,58.10
2023-03-18T14:18:00.955Z,58.60
2023-03-18T14:20:40.387Z,57.50
2023-03-18T14:23:33.686Z,56.60
2023-03-18T14:26:17.114Z,56.30
2023-03-18T14:28:54.637Z,57.00
2023-03-18T14:31:32.313Z,54.70
2023-03-18T14:34:10.705Z,55.20
2023-03-18T14:36:55.569Z,53.90
2023-03-18T14:39:30.614Z,55.30
2023-03-18T14:42:02.397Z,57.30
2023-03-18T14:44:47.849Z,57.30
2023-03-18T14:47:37.440Z,55.90
2023-03-18T14:50:14.410Z,55.40
2023-03-18T14:52:44.279Z,56.90
2023-03-18T14:55:25.738Z,56.90
2023-03-18T14:57:55.016Z,57.60
2023-03-18T15:00:24.967Z,56.40
2023-03-18T15:03:20.043Z,58.20
2023-03-18T15:05:46.840Z,57.90
2023-03-18T15:08:19.465Z,56.20
2023-03-18T15:10:51.752Z,56.20
2023-03-18T15:13:23.895Z,56.70
2023-03-18T15:15:56.355Z,58.00
2023-03-18T15:18:29.976Z,56.30
2023-03-18T15:21:05.524Z,56.70
2023-03-18T15:23:39.095Z,56.40
2023-03-18T15:26:23.813Z,55.70
2023-03-18T15:28:56.469Z,56.00
2023-03-18T15:31:42.380Z,54.90
2023-03-18T15:34:30.704Z,56.10
2023-03-18T15:37:01.453Z,56.60
2023-03-18T15:39:32.202Z,56.10
2023-03-18T15:42:01.085Z,55.70
2023-03-18T15:44:37.014Z,56.20
2023-03-18T15:47:12.373Z,56.50
2023-03-18T15:50:00.986Z,55.40
2023-03-18T15:52:33.365Z,54.80
2023-03-18T15:55:01.275Z,53.30
2023-03-18T15:57:35.925Z,53.50
2023-03-18T16:00:06.356Z,53.50
2023-03-18T16:02:34.237Z,54.70
2023-03-18T16:05:40.788Z,55.30
2023-03-18T16:08:14.019Z,57.20
2023-03-18T16:10:41.437Z,56.90
2023-03-18T16:13:15.687Z,57.30
2023-03-18T16:15:42.493Z,57.80
2023-03-18T16:18:12.818Z,58.10
2023-03-18T16:20:41.720Z,58.50
2023-03-18T16:23:08.501Z,59.10
2023-03-18T16:25:35.622Z,58.90
2023-03-18T16:28:02.653Z,59.40
2023-03-18T16:30:31.408Z,59.70
2023-03-18T16:32:58.862Z,58.50
2023-03-18T16:35:31.321Z,56.10
2023-03-18T16:38:00.431Z,56.10
2023-03-18T16:40:30.689Z,54.20
2023-03-18T16:42:57.931Z,54.90
2023-03-18T16:45:30.254Z,56.20
2023-03-18T16:48:00.884Z,57.00
2023-03-18T16:50:41.378Z,58.20
2023-03-18T16:53:27.139Z,59.20
2023-03-18T16:56:16.291Z,60.50
2023-03-18T16:58:45.430Z,61.50
2023-03-18T17:01:16.575Z,62.50
2023-03-18T17:03:44.401Z,63.90
2023-03-18T17:06:12.638Z,65.10
2023-03-18T17:08:40.052Z,65.60
2023-03-18T17:11:07.491Z,64.80
2023-03-18T17:13:38.061Z,64.40
2023-03-18T17:16:16.164Z,64.80
2023-03-18T17:18:42.876Z,65.90
2023-03-18T17:21:12.125Z,66.20
2023-03-18T17:23:38.823Z,67.50
2023-03-18T17:26:07.174Z,67.80
2023-03-18T17:28:38.518Z,68.90
2023-03-18T17:31:09.240Z,69.70
2023-03-18T17:33:37.125Z,70.40
2023-03-18T17:36:05.768Z,71.00
2023-03-18T17:38:34.984Z,71.90
2023-03-18T17:41:05.355Z,72.20
2023-03-18T17:43:36.428Z,72.70
2023-03-18T17:46:04.738Z,72.50
2023-03-18T17:48:36.013Z,72.90
2023-03-18T17:51:18.651Z,72.80
2023-03-18T17:53:48.109Z,73.30
2023-03-18T17:56:17.208Z,73.30
2023-03-18T17:58:46.658Z,73.70
2023-03-18T18:01:19.460Z,73.70
2023-03-18T18:03:47.745Z,74.20
2023-03-18T18:06:19.759Z,74.70
2023-03-18T18:08:48.275Z,75.50
2023-03-18T18:11:19.119Z,75.90
2023-03-18T18:13:47.306Z,76.30
2023-03-18T18:16:14.442Z,76.90
2023-03-18T18:18:41.644Z,77.50
2023-03-18T18:21:23.431Z,77.70
2023-03-18T18:23:50.468Z,77.70
2023-03-18T18:26:19.733Z,77.80
2023-03-18T18:28:48.559Z,78.00
2023-03-18T18:31:17.778Z,78.20
2023-03-18T18:33:45.686Z,78.70
2023-03-18T18:36:16.707Z,78.90
2023-03-18T18:38:43.391Z,78.80
2023-03-18T18:41:10.457Z,78.70
2023-03-18T18:43:37.150Z,78.50
2023-03-18T18:46:04.232Z,79.00
2023-03-18T18:48:37.821Z,80.10
2023-03-18T18:51:04.731Z,79.30
2023-03-18T18:53:36.532Z,79.40
2023-03-18T18:56:43.918Z,80.10
2023-03-18T18:59:28.552Z,82.10
2023-03-18T19:01:56.303Z,80.60
2023-03-18T19:04:23.832Z,80.90
2023-03-18T19:06:54.551Z,82.60
2023-03-18T19:09:26.213Z,83.40
2023-03-18T19:11:53.762Z,82.60
2023-03-18T19:14:31.264Z,82.00
2023-03-18T19:17:03.491Z,82.20
2023-03-18T19:19:34.342Z,82.90
2023-03-18T19:22:01.185Z,83.30
2023-03-18T19:24:29.269Z,83.50
2023-03-18T19:27:02.104Z,84.00
2023-03-18T19:29:29.264Z,84.50
2023-03-18T19:31:56.176Z,84.90
2023-03-18T19:34:23.735Z,85.00
2023-03-18T19:36:55.921Z,85.60
2023-03-18T19:39:26.435Z,85.90
2023-03-18T19:41:53.071Z,86.30
2023-03-18T19:44:25.530Z,86.60
2023-03-18T19:46:55.014Z,87.60
2023-03-18T19:49:38.891Z,88.70
2023-03-18T19:52:37.857Z,89.90
2023-03-18T19:55:08.357Z,90.80
2023-03-18T19:57:35.181Z,91.30
2023-03-18T20:00:05.846Z,91.80
2023-03-18T20:02:35.795Z,92.20
2023-03-18T20:05:14.429Z,92.60
2023-03-18T20:07:43.667Z,92.90
2023-03-18T20:10:12.199Z,93.20
2023-03-18T20:12:41.226Z,93.40
2023-03-18T20:15:14.736Z,93.60
2023-03-18T20:17:44.721Z,93.70
2023-03-18T20:20:20.404Z,93.60
2023-03-18T20:22:53.093Z,93.60
2023-03-18T20:25:25.708Z,93.60
2023-03-18T20:27:56.187Z,93.60
2023-03-18T20:30:31.182Z,93.60
2023-03-18T20:32:58.850Z,93.80
2023-03-18T20:35:28.824Z,94.10
2023-03-18T20:37:57.417Z,94.40
2023-03-18T20:40:29.992Z,94.60
2023-03-18T20:42:57.612Z,94.70
2023-03-18T20:45:25.057Z,94.90
2023-03-18T20:47:52.043Z,94.70
2023-03-18T20:50:22.069Z,94.80
2023-03-18T20:52:49.370Z,94.80
2023-03-18T20:55:22.002Z,94.50
2023-03-18T20:57:52.789Z,94.40
2023-03-18T21:00:24.124Z,94.40
2023-03-18T21:02:57.763Z,94.50
2023-03-18T21:05:26.214Z,94.50
2023-03-18T21:07:53.662Z,94.50
2023-03-18T21:10:23.698Z,94.60
2023-03-18T21:12:51.040Z,94.80
2023-03-18T21:15:22.137Z,95.10
2023-03-18T21:17:51.605Z,95.50
2023-03-18T21:20:22.422Z,95.90
2023-03-18T21:22:50.869Z,96.40
2023-03-18T21:25:20.714Z,96.60
2023-03-18T21:27:48.410Z,96.80
2023-03-18T21:30:19.362Z,96.80
2023-03-18T21:32:50.593Z,96.90
2023-03-18T21:35:25.681Z,97.00
2023-03-18T21:37:53.119Z,97.10
2023-03-18T21:40:24.004Z,97.50
2023-03-18T21:42:51.809Z,98.00
2023-03-18T21:45:24.352Z,98.50
2023-03-18T21:47:53.744Z,99.00
2023-03-18T21:50:26.264Z,99.50
2023-03-18T21:52:54.558Z,99.90
2023-03-18T21:55:21.941Z,99.90
2023-03-18T21:57:49.433Z,99.90
2023-03-18T22:00:20.156Z,99.90
2023-03-18T22:02:50.331Z,99.90
2023-03-18T22:05:23.750Z,99.90
2023-03-18T22:07:51.817Z,99.90
2023-03-18T22:10:23.595Z,99.90
2023-03-18T22:12:53.350Z,99.90
2023-03-18T22:15:40.042Z,99.90
2023-03-18T22:18:09.681Z,99.90
2023-03-18T22:20:38.236Z,99.90
2023-03-18T22:23:20.044Z,99.90
2023-03-18T22:25:49.420Z,99.90
2023-03-18T22:28:16.333Z,99.90
2023-03-18T22:30:47.587Z,99.90
2023-03-18T22:33:25.465Z,99.90
2023-03-18T22:35:52.773Z,99.90
2023-03-18T22:38:21.635Z,99.90
2023-03-18T22:40:52.624Z,99.90
2023-03-18T22:43:38.584Z,99.90
2023-03-18T22:46:07.916Z,99.90
2023-03-18T22:48:34.704Z,99.90
2023-03-18T22:51:02.240Z,99.90
2023-03-18T22:53:30.513Z,99.90
2023-03-18T22:56:02.054Z,99.90
2023-03-18T22:58:28.876Z,99.90
2023-03-18T23:00:55.995Z,99.90
2023-03-18T23:03:28.751Z,99.90
2023-03-18T23:05:57.616Z,99.90
2023-03-18T23:08:25.131Z,99.90
2023-03-18T23:10:56.432Z,99.90
2023-03-18T23:13:37.015Z,99.90
2023-03-18T23:16:11.401Z,99.90
2023-03-18T23:18:40.881Z,99.90
2023-03-18T23:21:09.893Z,99.90
2023-03-18T23:23:36.771Z,99.90
2023-03-18T23:26:03.430Z,99.90
2023-03-18T23:28:30.067Z,99.90
2023-03-18T23:30:58.835Z,99.90
2023-03-18T23:33:27.793Z,99.90
2023-03-18T23:35:54.518Z,99.90
2023-03-18T23:38:21.245Z,99.90
2023-03-18T23:40:50.382Z,99.90
2023-03-18T23:43:17.062Z,99.90
2023-03-18T23:45:43.939Z,99.90
2023-03-18T23:48:10.708Z,99.90
2023-03-18T23:50:39.725Z,99.90
2023-03-18T23:53:06.533Z,99.90
2023-03-18T23:55:35.541Z,99.90
2023-03-18T23:58:03.457Z,99.90
